»·PEaware :: WAX464 KSNA-KLAS

WAX464 :: KSNA-KLAS

FLIGHT INFORMATION

Flight Status: Arrived
Operator: Unknown
More flights by this operator :: More flights under this callsign
Pilot: Marty P. (27464)
Aircraft: BOMBARDIER BD-100 CHALLENGER 300
(CL30)
More flights by this aircraft type
Origin: KSNA John Wayne-Orange Co
United States
Destination: KLAS McCarran Intl
United States
More flights between these airports :: More routes between these airports
Route: FINZZ2 MISEN KEPEC6
File this flight plan on PilotEdge
Remarks: “WAX = WALKER AIR; VISIT US AT HTTPS / / WALKERAIR.US
Altitude:
(Current/Filed)
29,000ft
Speed:
(Current/Filed)
470kts
Departed: 16-Mar-20 08:53 PM
Arrived: 16-Mar-20 09:44 PM
Distance/Time
Traveled:
196nm/0:51
Distance/Time
To Go:
Arrived

Flight Plot

Page will automatically refresh every two minutes.

Flight plan parsing failed; only flown route is shown


Map Options




Map Legend


Flown Route
Filed Route
Departure Airport
Arrival Airport
Navaid (VOR, NDB)
Fix

Horizontal Profiles

Position Reports

Time Latitude Longitude Heading Altitude Ground
Speed
16-Mar-20 20:17 33.674978 -117.865011 118 63ft 0kts
16-Mar-20 20:18 33.674978 -117.865011 118 63ft 0kts
16-Mar-20 20:19 33.674978 -117.865011 118 63ft 0kts
16-Mar-20 20:20 33.674978 -117.865011 118 63ft 0kts
16-Mar-20 20:21 33.674978 -117.865011 118 63ft 0kts
16-Mar-20 20:22 33.674978 -117.865011 118 63ft 0kts
16-Mar-20 20:23 33.674978 -117.865011 118 63ft 0kts
16-Mar-20 20:24 33.674978 -117.865011 118 63ft 0kts
16-Mar-20 20:25 33.674978 -117.865011 118 63ft 0kts
16-Mar-20 20:26 33.674978 -117.865011 118 63ft 0kts
16-Mar-20 20:26 33.674978 -117.865011 118 63ft 0kts
16-Mar-20 20:28 33.674978 -117.865011 118 63ft 0kts
16-Mar-20 20:29 33.674978 -117.865011 118 63ft 0kts
16-Mar-20 20:29 33.674978 -117.865011 118 63ft 0kts
16-Mar-20 20:30 33.674978 -117.865011 118 63ft 0kts
16-Mar-20 20:32 33.674978 -117.865011 118 63ft 0kts
16-Mar-20 20:32 33.674978 -117.865011 118 63ft 0kts
16-Mar-20 20:33 33.674978 -117.865011 118 63ft 0kts
16-Mar-20 20:34 33.674978 -117.865011 118 63ft 0kts
16-Mar-20 20:35 33.674978 -117.865011 118 63ft 0kts
16-Mar-20 20:36 33.674978 -117.865011 118 63ft 0kts
16-Mar-20 20:38 33.674978 -117.865011 118 63ft 0kts
16-Mar-20 20:38 33.674978 -117.865011 118 63ft 0kts
16-Mar-20 20:39 33.674978 -117.865011 118 63ft 0kts
16-Mar-20 20:40 33.674978 -117.865011 118 63ft 0kts
16-Mar-20 20:41 33.674978 -117.865011 118 63ft 0kts
16-Mar-20 20:42 33.674978 -117.865011 118 63ft 0kts
16-Mar-20 20:43 33.674978 -117.865011 118 63ft 0kts
16-Mar-20 20:44 33.674976 -117.865007 118 63ft 0kts
16-Mar-20 20:45 33.675155 -117.865408 118 63ft 2kts
16-Mar-20 20:46 33.675116 -117.865837 27 63ft 0kts
16-Mar-20 20:47 33.675116 -117.865837 27 62ft 0kts
16-Mar-20 20:48 33.678479 -117.863700 27 63ft 28kts
16-Mar-20 20:49 33.681126 -117.864140 297 63ft 7kts
16-Mar-20 20:50 33.681158 -117.864211 297 63ft 0kts
16-Mar-20 20:51 33.681158 -117.864211 297 63ft 0kts
16-Mar-20 20:52 33.676799 -117.868144 208 63ft 109kts
16-Mar-20 20:53 33.632862 -117.887365 193 2898ft 176kts
16-Mar-20 20:54 33.580303 -117.897598 192 4696ft 194kts
16-Mar-20 20:55 33.534971 -117.941140 222 4999ft 222kts
16-Mar-20 20:56 33.491941 -117.991897 245 4997ft 230kts
16-Mar-20 20:57 33.526281 -118.059920 306 9827ft 266kts
16-Mar-20 20:58 33.584145 -118.120777 344 13707ft 300kts
16-Mar-20 20:59 33.670966 -118.082173 25 14618ft 391kts
16-Mar-20 21:00 33.768990 -118.025028 24 15301ft 401kts
16-Mar-20 21:01 33.870291 -117.965848 23 16006ft 423kts
16-Mar-20 21:02 33.966563 -117.889536 35 17606ft 428kts
16-Mar-20 21:03 34.062965 -117.801475 34 20509ft 452kts
16-Mar-20 21:04 34.148770 -117.689374 51 22955ft 476kts
16-Mar-20 21:05 34.237926 -117.556931 51 22953ft 520kts
16-Mar-20 21:06 34.328462 -117.421896 51 22949ft 516kts
16-Mar-20 21:07 34.416965 -117.289379 52 22940ft 512kts
16-Mar-20 21:08 34.503241 -117.159694 52 25765ft 488kts
16-Mar-20 21:09 34.590252 -117.031134 50 27711ft 501kts
16-Mar-20 21:10 34.680976 -116.898749 50 28960ft 526kts
16-Mar-20 21:11 34.778266 -116.756259 50 28953ft 560kts
16-Mar-20 21:12 34.883257 -116.617628 38 28946ft 557kts
16-Mar-20 21:13 35.004279 -116.499309 37 28936ft 556kts
16-Mar-20 21:14 35.121251 -116.379223 44 28939ft 558kts
16-Mar-20 21:16 35.245614 -116.224367 46 28915ft 541kts
16-Mar-20 21:16 35.331999 -116.115739 46 28918ft 529kts
16-Mar-20 21:17 35.432567 -115.988749 46 25471ft 510kts
16-Mar-20 21:18 35.528770 -115.866830 47 21456ft 485kts
16-Mar-20 21:19 35.619494 -115.751435 47 17467ft 457kts
16-Mar-20 21:20 35.703695 -115.644010 47 13497ft 417kts
16-Mar-20 21:21 35.786625 -115.577055 5 13007ft 339kts
16-Mar-20 21:22 35.880834 -115.568732 0 13003ft 339kts
16-Mar-20 21:23 35.970399 -115.543820 53 13003ft 336kts
16-Mar-20 21:24 36.010347 -115.440049 72 11016ft 322kts
16-Mar-20 21:25 36.028172 -115.347546 100 10999ft 259kts
16-Mar-20 21:27 36.021320 -115.241134 101 11001ft 276kts
16-Mar-20 21:27 36.015717 -115.160851 101 10965ft 289kts
16-Mar-20 21:28 36.008895 -115.057173 99 8093ft 293kts
16-Mar-20 21:29 36.003540 -114.966954 100 8016ft 249kts
16-Mar-20 21:30 35.998608 -114.885064 100 8024ft 234kts
16-Mar-20 21:31 35.993499 -114.803640 100 8020ft 242kts
16-Mar-20 21:32 35.987942 -114.719151 100 8022ft 248kts
16-Mar-20 21:33 35.983961 -114.632919 78 8004ft 261kts
16-Mar-20 21:34 36.048704 -114.610627 318 8022ft 262kts
16-Mar-20 21:35 36.068035 -114.679988 272 8005ft 181kts
16-Mar-20 21:36 36.073083 -114.744311 262 8031ft 197kts
16-Mar-20 21:37 36.073228 -114.815077 262 7269ft 198kts
16-Mar-20 21:38 36.073416 -114.877253 262 6223ft 168kts
16-Mar-20 21:39 36.073539 -114.933505 261 5324ft 163kts
16-Mar-20 21:40 36.073592 -114.989513 262 4414ft 162kts
16-Mar-20 21:41 36.073638 -115.045308 262 3498ft 161kts
16-Mar-20 21:42 36.073658 -115.100346 265 2634ft 159kts
16-Mar-20 21:43 36.073655 -115.141729 272 2188ft 17kts
16-Mar-20 21:44 36.075027 -115.148421 269 2188ft 22kts
16-Mar-20 21:45 36.075017 -115.155355 269 2187ft 18kts
16-Mar-20 21:46 36.075005 -115.160523 269 2187ft 9kts
16-Mar-20 21:47 36.074977 -115.166442 255 2188ft 24kts
16-Mar-20 21:48 36.077741 -115.171176 351 2188ft 19kts
16-Mar-20 21:49 36.081472 -115.169807 278 2188ft 7kts
16-Mar-20 21:50 36.081699 -115.170449 338 2187ft 0kts

Navigation Log

Ident Type
Flight plan parsing failed, navigation log unavailable